createdAt,value
2023-02-09T00:00:29.065Z,34.35
2023-02-09T00:02:58.175Z,34.97
2023-02-09T00:05:25.957Z,31.15
2023-02-09T00:07:54.044Z,37.15
2023-02-09T00:10:21.887Z,34.20
2023-02-09T00:13:06.925Z,34.55
2023-02-09T00:15:34.737Z,30.92
2023-02-09T00:18:03.947Z,35.05
2023-02-09T00:20:31.763Z,40.60
2023-02-09T00:22:59.507Z,32.38
2023-02-09T00:25:27.304Z,34.00
2023-02-09T00:27:55.179Z,41.28
2023-02-09T00:30:22.898Z,40.60
2023-02-09T00:32:50.583Z,43.95
2023-02-09T00:35:20.453Z,44.30
2023-02-09T00:37:48.281Z,43.67
2023-02-09T00:40:16.039Z,38.08
2023-02-09T00:42:44.005Z,50.72
2023-02-09T00:45:11.738Z,38.90
2023-02-09T00:47:39.477Z,47.22
2023-02-09T00:50:08.529Z,38.05
2023-02-09T00:52:37.786Z,42.13
2023-02-09T00:55:06.187Z,44.20
2023-02-09T00:57:33.891Z,40.30
2023-02-09T01:00:01.648Z,38.80
2023-02-09T01:02:29.636Z,44.85
2023-02-09T01:04:57.434Z,47.53
2023-02-09T01:07:25.260Z,48.92
2023-02-09T01:09:54.370Z,43.47
2023-02-09T01:12:22.171Z,45.85
2023-02-09T01:14:49.936Z,36.22
2023-02-09T01:17:17.699Z,35.90
2023-02-09T01:19:45.448Z,34.47
2023-02-09T01:22:16.243Z,49.53
2023-02-09T01:24:44.023Z,39.58
2023-02-09T01:27:13.142Z,34.40
2023-02-09T01:29:40.957Z,40.15
2023-02-09T01:32:09.191Z,43.85
2023-02-09T01:34:37.207Z,33.38
2023-02-09T01:37:05.034Z,45.22
2023-02-09T01:39:33.295Z,40.92
2023-02-09T01:42:01.111Z,45.95
2023-02-09T01:45:06.323Z,39.25
2023-02-09T01:47:39.161Z,35.35
2023-02-09T01:50:07.469Z,27.02
2023-02-09T01:52:35.532Z,37.92
2023-02-09T01:55:07.535Z,34.25
2023-02-09T01:57:39.292Z,31.77
2023-02-09T02:00:11.371Z,35.90
2023-02-09T02:02:40.301Z,31.88
2023-02-09T02:05:09.554Z,41.65
2023-02-09T02:07:41.924Z,29.27
2023-02-09T02:10:10.106Z,42.03
2023-02-09T02:12:39.364Z,30.85
2023-02-09T02:15:09.512Z,34.17
2023-02-09T02:17:55.357Z,39.85
2023-02-09T02:20:50.846Z,34.38
2023-02-09T02:23:27.537Z,33.67
2023-02-09T02:26:29.792Z,26.67
2023-02-09T02:29:46.039Z,29.35
2023-02-09T02:32:31.696Z,32.30
2023-02-09T02:35:05.683Z,37.65
2023-02-09T02:37:49.720Z,24.70
2023-02-09T02:40:28.387Z,30.48
2023-02-09T02:43:02.423Z,28.88
2023-02-09T02:45:39.617Z,26.80
2023-02-09T02:48:19.753Z,28.63
2023-02-09T02:50:54.073Z,30.02
2023-02-09T02:53:26.438Z,26.80
2023-02-09T02:55:55.874Z,32.28
2023-02-09T02:58:26.836Z,37.17
2023-02-09T03:00:58.996Z,30.13
2023-02-09T03:03:33.203Z,34.05
2023-02-09T03:06:04.208Z,41.53
2023-02-09T03:08:32.075Z,30.73
2023-02-09T03:11:00.095Z,35.05
2023-02-09T03:13:40.888Z,33.90
2023-02-09T03:16:21.578Z,36.28
2023-02-09T03:19:04.836Z,31.73
2023-02-09T03:21:43.258Z,31.48
2023-02-09T03:24:20.663Z,30.33
2023-02-09T03:26:53.884Z,27.65
2023-02-09T03:29:24.616Z,31.98
2023-02-09T03:31:53.236Z,28.67
2023-02-09T03:34:22.559Z,36.92
2023-02-09T03:36:53.316Z,33.30
2023-02-09T03:39:21.101Z,25.02
2023-02-09T03:41:48.936Z,36.65
2023-02-09T03:44:28.917Z,26.63
2023-02-09T03:47:01.405Z,29.08
2023-02-09T03:49:32.833Z,36.20
2023-02-09T03:52:01.654Z,25.92
2023-02-09T03:54:30.048Z,28.00
2023-02-09T03:56:58.187Z,33.40
2023-02-09T03:59:26.905Z,41.25
2023-02-09T04:01:55.346Z,31.77
2023-02-09T04:04:24.176Z,28.70
2023-02-09T04:06:54.094Z,29.00
2023-02-09T04:09:21.878Z,21.25
2023-02-09T04:11:49.848Z,29.67
2023-02-09T04:14:18.146Z,27.35
2023-02-09T04:16:46.064Z,41.60
2023-02-09T04:19:13.864Z,31.88
2023-02-09T04:21:41.745Z,30.38
2023-02-09T04:24:11.443Z,24.42
2023-02-09T04:26:39.290Z,28.20
2023-02-09T04:29:07.132Z,29.23
2023-02-09T04:31:35.998Z,28.08
2023-02-09T04:34:03.911Z,25.48
2023-02-09T04:36:31.881Z,22.23
2023-02-09T04:38:59.609Z,24.42
2023-02-09T04:41:28.768Z,26.75
2023-02-09T04:43:56.495Z,31.80
2023-02-09T04:46:24.391Z,29.50
2023-02-09T04:48:52.281Z,29.85
2023-02-09T04:51:20.008Z,30.23
2023-02-09T04:53:47.806Z,24.90
2023-02-09T04:56:16.690Z,25.27
2023-02-09T04:59:03.285Z,23.38
2023-02-09T05:01:31.718Z,31.17
2023-02-09T05:03:59.457Z,26.17
2023-02-09T05:06:27.452Z,21.15
2023-02-09T05:08:55.164Z,25.02
2023-02-09T05:11:25.289Z,37.65
2023-02-09T05:13:54.706Z,31.55
2023-02-09T05:16:22.523Z,25.30
2023-02-09T05:18:51.088Z,29.20
2023-02-09T05:21:18.950Z,27.77
2023-02-09T05:23:46.795Z,29.90
2023-02-09T05:26:14.587Z,27.27
2023-02-09T05:28:42.324Z,33.13
2023-02-09T05:31:11.549Z,23.70
2023-02-09T05:33:39.363Z,24.23
2023-02-09T05:36:09.438Z,31.55
2023-02-09T05:38:37.697Z,28.00
2023-02-09T05:41:06.508Z,40.80
2023-02-09T05:43:34.315Z,45.38
2023-02-09T05:46:02.106Z,33.75
2023-02-09T05:48:31.377Z,24.13
2023-02-09T05:50:59.196Z,26.50
2023-02-09T05:53:26.942Z,33.53
2023-02-09T05:55:54.757Z,20.85
2023-02-09T05:58:22.505Z,22.08
2023-02-09T06:00:50.222Z,35.90
2023-02-09T06:03:18.080Z,30.55
2023-02-09T06:05:47.872Z,24.77
2023-02-09T06:08:15.833Z,27.70
2023-02-09T06:10:43.861Z,28.38
2023-02-09T06:13:11.869Z,25.00
2023-02-09T06:15:39.738Z,33.67
2023-02-09T06:18:07.509Z,29.98
2023-02-09T06:20:35.260Z,31.40
2023-02-09T06:23:04.483Z,25.20
2023-02-09T06:25:32.200Z,26.33
2023-02-09T06:27:59.971Z,24.10
2023-02-09T06:30:27.783Z,30.10
2023-02-09T06:32:55.572Z,29.63
2023-02-09T06:35:23.438Z,33.35
2023-02-09T06:37:51.145Z,30.75
2023-02-09T06:40:20.784Z,26.67
2023-02-09T06:42:48.640Z,25.20
2023-02-09T06:45:18.031Z,31.13
2023-02-09T06:47:46.961Z,29.67
2023-02-09T06:50:18.893Z,31.00
2023-02-09T06:52:47.269Z,27.50
2023-02-09T06:55:15.469Z,32.08
2023-02-09T06:57:44.558Z,30.77
2023-02-09T07:00:14.041Z,28.52
2023-02-09T07:02:43.786Z,33.85
2023-02-09T07:05:11.760Z,31.70
2023-02-09T07:07:40.138Z,32.08
2023-02-09T07:10:10.067Z,31.60
2023-02-09T07:12:40.503Z,33.22
2023-02-09T07:15:10.760Z,31.58
2023-02-09T07:17:38.635Z,37.90
2023-02-09T07:20:07.608Z,29.17
2023-02-09T07:22:35.396Z,30.08
2023-02-09T07:25:03.288Z,35.08
2023-02-09T07:27:33.309Z,29.00
2023-02-09T07:30:01.435Z,40.03
2023-02-09T07:32:30.902Z,28.30
2023-02-09T07:34:59.411Z,34.95
2023-02-09T07:37:27.143Z,30.80
2023-02-09T07:39:55.120Z,23.90
2023-02-09T07:42:23.464Z,31.13
2023-02-09T07:44:51.299Z,24.50
2023-02-09T07:47:19.073Z,37.38
2023-02-09T07:49:48.155Z,19.98
2023-02-09T07:52:15.923Z,26.25
2023-02-09T07:54:43.764Z,28.50
2023-02-09T07:57:13.600Z,35.67
2023-02-09T07:59:41.449Z,27.50
2023-02-09T08:02:19.026Z,31.25
2023-02-09T08:04:48.213Z,27.98
2023-02-09T08:07:16.061Z,39.88
2023-02-09T08:09:45.105Z,39.42
2023-02-09T08:12:13.149Z,39.90
2023-02-09T08:14:48.039Z,39.05
2023-02-09T08:17:24.241Z,40.03
2023-02-09T08:19:55.706Z,33.85
2023-02-09T08:22:26.014Z,31.83
2023-02-09T08:24:54.546Z,38.15
2023-02-09T08:27:23.244Z,23.50
2023-02-09T08:29:51.046Z,33.10
2023-02-09T08:32:18.902Z,32.38
2023-02-09T08:34:46.700Z,36.35
2023-02-09T08:37:16.041Z,25.73
2023-02-09T08:39:45.124Z,22.42
2023-02-09T08:42:12.998Z,29.10
2023-02-09T08:44:40.785Z,27.73
2023-02-09T08:47:08.633Z,32.38
2023-02-09T08:49:37.158Z,29.45
2023-02-09T08:52:05.287Z,23.08
2023-02-09T08:54:34.353Z,28.02
2023-02-09T08:57:02.660Z,27.88
2023-02-09T08:59:30.568Z,23.20
2023-02-09T09:01:58.286Z,34.17
2023-02-09T09:04:26.091Z,28.17
2023-02-09T09:06:54.857Z,26.15
2023-02-09T09:09:22.578Z,30.10
2023-02-09T09:11:51.817Z,28.52
2023-02-09T09:14:19.508Z,27.55
2023-02-09T09:16:47.376Z,24.30
2023-02-09T09:19:15.265Z,25.95
2023-02-09T09:21:43.064Z,34.78
2023-02-09T09:24:10.818Z,23.52
2023-02-09T09:26:38.584Z,31.42
2023-02-09T09:29:07.759Z,32.65
2023-02-09T09:31:37.160Z,32.63
2023-02-09T09:34:05.056Z,37.28
2023-02-09T09:36:32.811Z,26.50
2023-02-09T09:39:00.611Z,27.98
2023-02-09T09:41:32.780Z,36.63
2023-02-09T09:44:02.112Z,21.48
2023-02-09T09:46:37.867Z,38.88
2023-02-09T09:49:06.602Z,38.67
2023-02-09T09:51:40.564Z,27.38
2023-02-09T09:54:15.202Z,35.17
2023-02-09T09:56:43.079Z,31.33
2023-02-09T09:59:17.674Z,39.58
2023-02-09T10:01:48.306Z,31.08
2023-02-09T10:04:17.254Z,26.60
2023-02-09T10:06:47.358Z,32.17
2023-02-09T10:09:26.089Z,27.95
2023-02-09T10:12:02.040Z,31.73
2023-02-09T10:14:29.872Z,33.30
2023-02-09T10:16:59.093Z,28.52
2023-02-09T10:19:29.305Z,30.15
2023-02-09T10:21:57.713Z,26.70
2023-02-09T10:24:27.333Z,24.13
2023-02-09T10:27:08.689Z,22.73
2023-02-09T10:29:36.960Z,20.65
2023-02-09T10:32:14.571Z,27.20
2023-02-09T10:34:46.139Z,28.52
2023-02-09T10:37:27.369Z,22.95
2023-02-09T10:40:01.734Z,32.10
2023-02-09T10:42:31.527Z,25.33
2023-02-09T10:45:07.821Z,23.27
2023-02-09T10:47:37.036Z,30.25
2023-02-09T10:50:17.130Z,35.42
2023-02-09T10:52:56.735Z,21.33
2023-02-09T10:55:29.506Z,24.27
2023-02-09T10:58:25.905Z,26.83
2023-02-09T11:01:01.925Z,23.38
2023-02-09T11:03:31.153Z,24.17
2023-02-09T11:06:02.363Z,23.88
2023-02-09T11:08:41.360Z,30.90
2023-02-09T11:11:25.925Z,21.60
2023-02-09T11:13:54.087Z,21.23
2023-02-09T11:16:46.855Z,25.85
2023-02-09T11:19:31.320Z,22.80
2023-02-09T11:22:11.835Z,22.65
2023-02-09T11:24:53.104Z,28.90
2023-02-09T11:27:37.486Z,26.23
2023-02-09T11:30:17.455Z,26.58
2023-02-09T11:32:51.179Z,20.40
2023-02-09T11:35:23.415Z,24.95
2023-02-09T11:37:57.680Z,28.48
2023-02-09T11:40:29.583Z,22.75
2023-02-09T11:43:06.929Z,29.35
2023-02-09T11:45:40.219Z,31.40
2023-02-09T11:48:12.358Z,27.25
2023-02-09T11:50:52.703Z,24.60
2023-02-09T11:53:29.070Z,24.42
2023-02-09T11:55:59.637Z,21.50
2023-02-09T11:58:53.275Z,26.63
2023-02-09T12:01:30.866Z,21.67
2023-02-09T12:04:06.228Z,25.40
2023-02-09T12:06:40.903Z,18.27
2023-02-09T12:09:21.174Z,19.52
2023-02-09T12:11:58.720Z,20.05
2023-02-09T12:14:57.255Z,19.70
2023-02-09T12:17:31.544Z,19.10
2023-02-09T12:20:01.383Z,25.55
2023-02-09T12:22:49.184Z,22.60
2023-02-09T12:25:46.171Z,20.48
2023-02-09T12:28:38.652Z,18.63
2023-02-09T12:31:16.305Z,18.80
2023-02-09T12:34:10.429Z,25.00
2023-02-09T12:39:24.273Z,15.88
2023-02-09T12:42:26.631Z,16.25
2023-02-09T12:45:00.574Z,20.50
2023-02-09T12:47:46.216Z,15.07
2023-02-09T12:50:24.552Z,15.57
2023-02-09T12:53:29.825Z,13.82
2023-02-09T12:56:05.248Z,12.73
2023-02-09T12:58:39.178Z,11.18
2023-02-09T13:01:07.858Z,21.58
2023-02-09T13:03:45.169Z,11.60
2023-02-09T13:06:27.567Z,19.08
2023-02-09T13:08:58.393Z,14.10
2023-02-09T13:11:33.333Z,14.70
2023-02-09T13:14:05.943Z,13.25
2023-02-09T13:16:50.851Z,10.60
2023-02-09T13:19:45.989Z,9.20
2023-02-09T13:22:27.905Z,16.10
2023-02-09T13:25:00.385Z,20.63
2023-02-09T13:27:30.575Z,13.93
2023-02-09T13:30:00.151Z,12.48
2023-02-09T13:32:36.845Z,13.07
2023-02-09T13:35:15.791Z,11.32
2023-02-09T13:37:47.662Z,7.25
2023-02-09T13:40:18.957Z,14.35
2023-02-09T13:42:57.976Z,13.75
2023-02-09T13:45:28.037Z,19.52
2023-02-09T13:47:57.161Z,13.35
2023-02-09T13:50:28.206Z,11.45
2023-02-09T13:53:08.063Z,13.30
2023-02-09T13:55:39.691Z,17.35
2023-02-09T13:58:15.323Z,13.45
2023-02-09T14:00:46.595Z,11.73
2023-02-09T14:03:19.318Z,14.80
2023-02-09T14:05:52.835Z,13.77
2023-02-09T14:08:22.273Z,14.73
2023-02-09T14:10:56.554Z,16.40
2023-02-09T14:13:30.950Z,13.38
2023-02-09T14:16:07.860Z,13.18
2023-02-09T14:18:50.732Z,13.43
2023-02-09T14:21:25.066Z,11.48
2023-02-09T14:24:21.502Z,10.45
2023-02-09T14:26:52.537Z,12.48
2023-02-09T14:29:25.201Z,10.20
2023-02-09T14:31:54.422Z,13.48
2023-02-09T14:34:37.594Z,13.38
2023-02-09T14:37:29.278Z,13.50
2023-02-09T14:40:01.006Z,9.40
2023-02-09T14:42:30.659Z,10.82
2023-02-09T14:45:02.744Z,10.07
2023-02-09T14:47:38.434Z,14.68
2023-02-09T14:50:07.835Z,10.38
2023-02-09T14:52:38.869Z,18.38
2023-02-09T14:55:12.538Z,13.70
2023-02-09T14:57:40.231Z,7.78
2023-02-09T15:00:21.939Z,11.77
2023-02-09T15:02:50.694Z,16.42
2023-02-09T15:05:19.188Z,9.90
2023-02-09T15:07:49.328Z,11.23
2023-02-09T15:10:27.788Z,11.30
2023-02-09T15:12:56.057Z,12.82
2023-02-09T15:15:26.259Z,12.02
2023-02-09T15:17:55.278Z,14.32
2023-02-09T15:20:25.403Z,11.02
2023-02-09T15:22:53.690Z,9.55
2023-02-09T15:25:22.641Z,11.63
2023-02-09T15:27:52.512Z,14.63
2023-02-09T15:30:22.528Z,8.82
2023-02-09T15:32:51.851Z,11.45
2023-02-09T15:35:21.724Z,8.63
2023-02-09T15:37:53.271Z,10.45
2023-02-09T15:40:45.013Z,10.52
2023-02-09T15:43:29.259Z,16.95
2023-02-09T15:46:14.931Z,18.17
2023-02-09T15:48:44.488Z,9.38
2023-02-09T15:51:12.407Z,12.57
2023-02-09T15:53:40.474Z,16.38
2023-02-09T15:56:09.204Z,9.93
2023-02-09T15:58:40.319Z,8.20
2023-02-09T16:01:08.036Z,8.70
2023-02-09T16:03:36.095Z,9.85
2023-02-09T16:06:12.809Z,8.05
2023-02-09T16:08:40.635Z,9.32
2023-02-09T16:11:17.729Z,11.93
2023-02-09T16:13:45.489Z,12.95
2023-02-09T16:16:17.271Z,9.25
2023-02-09T16:18:45.909Z,10.30
2023-02-09T16:21:21.028Z,7.78
2023-02-09T16:23:49.078Z,8.60
2023-02-09T16:26:16.921Z,11.13
2023-02-09T16:28:44.627Z,9.90
2023-02-09T16:31:12.393Z,12.68
2023-02-09T16:33:41.644Z,7.85
2023-02-09T16:36:17.016Z,14.05
2023-02-09T16:38:44.830Z,9.77
2023-02-09T16:41:39.711Z,11.43
2023-02-09T16:44:16.909Z,18.98
2023-02-09T16:46:46.950Z,8.63
2023-02-09T16:49:30.789Z,10.32
2023-02-09T16:54:32.020Z,11.20
2023-02-09T16:57:00.856Z,9.07
2023-02-09T16:59:28.912Z,12.80
2023-02-09T17:01:59.796Z,13.25
2023-02-09T17:04:27.775Z,9.20
2023-02-09T17:06:55.875Z,13.90
2023-02-09T17:09:24.957Z,10.15
2023-02-09T17:11:52.704Z,11.95
2023-02-09T17:14:20.463Z,10.00
2023-02-09T17:16:49.662Z,19.95
2023-02-09T17:19:19.094Z,12.32
2023-02-09T17:21:46.931Z,19.33
2023-02-09T17:24:17.460Z,17.85
2023-02-09T17:26:46.700Z,18.92
2023-02-09T17:29:14.501Z,17.10
2023-02-09T17:31:52.951Z,17.17
2023-02-09T17:34:26.896Z,8.80
2023-02-09T17:36:54.766Z,13.55
2023-02-09T17:39:22.465Z,13.85
2023-02-09T17:41:51.710Z,13.10
2023-02-09T17:44:32.105Z,13.52
2023-02-09T17:47:07.358Z,16.20
2023-02-09T17:49:35.229Z,17.40
2023-02-09T17:52:03.021Z,11.90
2023-02-09T17:54:32.498Z,18.48
2023-02-09T17:57:01.641Z,9.93
2023-02-09T17:59:29.557Z,11.98
2023-02-09T18:01:58.799Z,13.13
2023-02-09T18:04:27.259Z,14.18
2023-02-09T18:06:57.670Z,16.33
2023-02-09T18:09:25.639Z,15.38
2023-02-09T18:11:59.748Z,15.52
2023-02-09T18:14:30.421Z,18.52
2023-02-09T18:16:58.480Z,16.90
2023-02-09T18:19:26.883Z,23.73
2023-02-09T18:21:58.679Z,20.33
2023-02-09T18:24:28.373Z,23.13
2023-02-09T18:26:56.884Z,22.88
2023-02-09T18:29:29.089Z,25.73
2023-02-09T18:31:59.953Z,25.38
2023-02-09T18:34:28.118Z,21.70
2023-02-09T18:36:56.004Z,23.58
2023-02-09T18:39:23.732Z,27.27
2023-02-09T18:41:54.214Z,25.77
2023-02-09T18:44:24.544Z,21.85
2023-02-09T18:46:52.380Z,26.20
2023-02-09T18:49:21.636Z,26.05
2023-02-09T18:51:49.734Z,23.42
2023-02-09T18:54:17.429Z,27.77
2023-02-09T18:56:45.244Z,20.13
2023-02-09T18:59:13.066Z,15.73
2023-02-09T19:01:41.123Z,13.82
2023-02-09T19:04:09.024Z,15.55
2023-02-09T19:06:38.694Z,18.70
2023-02-09T19:09:06.460Z,16.08
2023-02-09T19:11:34.398Z,18.33
2023-02-09T19:14:20.003Z,14.98
2023-02-09T19:16:47.853Z,13.05
2023-02-09T19:19:16.095Z,17.35
2023-02-09T19:21:45.185Z,14.20
2023-02-09T19:24:13.336Z,23.10
2023-02-09T19:26:41.083Z,15.85
2023-02-09T19:29:08.855Z,18.52
2023-02-09T19:31:36.637Z,17.75
2023-02-09T19:34:04.474Z,18.83
2023-02-09T19:36:32.289Z,17.88
2023-02-09T19:39:02.151Z,20.65
2023-02-09T19:41:30.152Z,16.33
2023-02-09T19:43:58.844Z,14.18
2023-02-09T19:46:27.052Z,20.23
2023-02-09T19:48:54.840Z,17.85
2023-02-09T19:51:23.187Z,20.30
2023-02-09T19:53:51.307Z,14.55
2023-02-09T19:56:23.292Z,18.52
2023-02-09T19:58:51.781Z,20.55
2023-02-09T20:01:20.042Z,20.05
2023-02-09T20:03:49.421Z,26.10
2023-02-09T20:06:17.807Z,23.98
2023-02-09T20:08:45.625Z,19.13
2023-02-09T20:11:16.656Z,21.60
2023-02-09T20:13:46.240Z,21.05
2023-02-09T20:16:19.580Z,23.52
2023-02-09T20:18:48.701Z,22.20
2023-02-09T20:21:17.997Z,28.23
2023-02-09T20:23:46.804Z,35.50
2023-02-09T20:26:16.446Z,54.08
2023-02-09T20:28:45.648Z,41.20
2023-02-09T20:31:15.658Z,30.98
2023-02-09T20:33:43.713Z,41.65
2023-02-09T20:36:11.607Z,30.08
2023-02-09T20:38:39.458Z,30.35
2023-02-09T20:41:09.402Z,24.55
2023-02-09T20:43:55.211Z,27.13
2023-02-09T20:46:55.497Z,25.45
2023-02-09T20:49:25.765Z,29.50
2023-02-09T20:51:53.636Z,29.80
2023-02-09T20:54:21.467Z,23.42
2023-02-09T20:56:49.261Z,23.63
2023-02-09T20:59:17.533Z,25.73
2023-02-09T21:01:47.926Z,28.45
2023-02-09T21:04:15.694Z,29.55
2023-02-09T21:06:43.768Z,25.02
2023-02-09T21:09:14.289Z,28.98
2023-02-09T21:11:42.845Z,20.98
2023-02-09T21:14:21.738Z,27.17
2023-02-09T21:16:57.308Z,25.98
2023-02-09T21:19:25.945Z,27.13
2023-02-09T21:21:53.846Z,32.05
2023-02-09T21:24:21.707Z,26.30
2023-02-09T21:26:49.623Z,22.92
2023-02-09T21:29:17.376Z,23.02
2023-02-09T21:31:45.823Z,20.38
2023-02-09T21:34:16.089Z,22.95
2023-02-09T21:36:45.576Z,21.45
2023-02-09T21:39:13.893Z,21.00
2023-02-09T21:41:59.461Z,21.55
2023-02-09T21:44:27.340Z,23.17
2023-02-09T21:46:55.114Z,28.48
2023-02-09T21:49:24.682Z,20.10
2023-02-09T21:51:52.527Z,24.25
2023-02-09T21:54:20.244Z,21.45
2023-02-09T21:56:48.073Z,24.52
2023-02-09T21:59:15.832Z,17.73
2023-02-09T22:01:43.748Z,22.58
2023-02-09T22:04:11.896Z,18.40
2023-02-09T22:06:41.687Z,28.92
2023-02-09T22:09:09.638Z,21.42
2023-02-09T22:11:37.430Z,26.55
2023-02-09T22:14:05.404Z,23.48
2023-02-09T22:16:33.382Z,25.25
2023-02-09T22:19:01.290Z,26.00
2023-02-09T22:21:29.079Z,28.70
2023-02-09T22:23:58.266Z,20.35
2023-02-09T22:26:26.024Z,18.90
2023-02-09T22:28:53.747Z,18.73
2023-02-09T22:31:22.621Z,25.52
2023-02-09T22:33:54.256Z,20.17
2023-02-09T22:36:23.304Z,25.58
2023-02-09T22:38:51.540Z,23.30
2023-02-09T22:41:23.248Z,28.52
2023-02-09T22:43:52.271Z,22.83
2023-02-09T22:46:20.963Z,20.25
2023-02-09T22:48:52.342Z,18.95
2023-02-09T22:51:20.833Z,26.58
2023-02-09T22:53:49.248Z,26.77
2023-02-09T22:56:17.592Z,25.10
2023-02-09T22:58:46.730Z,22.25
2023-02-09T23:01:14.756Z,24.20
2023-02-09T23:03:42.857Z,18.80
2023-02-09T23:06:13.814Z,26.30
2023-02-09T23:08:41.597Z,19.33
2023-02-09T23:11:11.570Z,19.67
2023-02-09T23:13:40.130Z,24.60
2023-02-09T23:16:15.192Z,21.17
2023-02-09T23:18:48.208Z,24.00
2023-02-09T23:21:17.783Z,18.65
2023-02-09T23:23:45.774Z,23.02
2023-02-09T23:26:14.596Z,23.77
2023-02-09T23:28:42.557Z,20.40
2023-02-09T23:31:14.860Z,24.33
2023-02-09T23:33:43.004Z,19.60
2023-02-09T23:36:12.865Z,15.75
2023-02-09T23:38:40.930Z,21.85
2023-02-09T23:41:09.718Z,17.75
2023-02-09T23:43:37.958Z,25.15
2023-02-09T23:46:08.901Z,17.45
2023-02-09T23:48:38.092Z,21.75
2023-02-09T23:51:07.822Z,19.25
2023-02-09T23:53:36.559Z,18.50
2023-02-09T23:56:04.892Z,16.45
2023-02-09T23:58:32.928Z,21.90
